Middle Wallop, United Kingdom
Current Conditions -  °F | °C
As of 9:50 AM on Friday 24 Oct 2014 (Local Time) from EGVP Reporting Station
Drizzle Drizzle  
Wind Chill: 14°   Ceiling: 500
Heat Index: 14°   Visibility: 6mi
Dew Point: 14°   Wind: 7mph
Humidity: 100%   Direction: 210°SSW
Pressure: 29.97"   Gusts: NA
Location:  51.15°N, 1.57°W
Report Text: EGVP 240850Z 21006KT 9999 -DZ FEW004 BKN005 OVC011 14/14 Q1015 YLO1 TEMPO 5000 SCT004 YLO2
Loading
Personal Weather Stations






























Interactive Weather Map
Tropical Storm Tracking
New forecast layout! Learn more

10-Day Weather Forecast

Advertisements
Track Severe Weather on mobile